Time;durP1;ratioP1;P1;durP2;ratioP2;P2;SDS_P1;SDS_P2;PMS_P1;PMS_P2;Temp;Humidity;BMP_temperature;BMP_pressure;BME280_temperature;BME280_humidity;BME280_pressure;Samples;Min_cycle;Max_cycle;Signal;HPM_P1;HPM_P2
2021/11/17 02:26:42;;;;;;;30.08;19.45;;;8.10;99.90;;;;;;2072447;28;20026;-72
2021/11/17 02:28:01;;;;;;;29.73;19.42;;;8.10;99.90;;;;;;2066036;28;20415;-71
2021/11/17 02:29:24;;;;;;;29.35;19.42;;;8.10;99.90;;;;;;2067332;28;20041;-72
2021/11/17 02:30:36;;;;;;;28.00;19.95;;;8.10;99.90;;;;;;2072780;28;20108;-71
2021/11/17 02:32:08;;;;;;;30.25;20.13;;;8.10;99.90;;;;;;2072616;28;20033;-71
2021/11/17 02:33:27;;;;;;;25.95;18.67;;;8.10;99.90;;;;;;2070495;28;20040;-71
2021/11/17 02:34:53;;;;;;;26.73;18.20;;;8.10;99.90;;;;;;2066649;28;20027;-71
2021/11/17 02:35:59;;;;;;;26.98;17.92;;;8.10;99.90;;;;;;2071437;28;20037;-71
2021/11/17 02:37:25;;;;;;;29.42;19.35;;;8.10;99.90;;;;;;2072334;28;20026;-72
2021/11/17 02:38:45;;;;;;;27.92;18.30;;;8.10;99.90;;;;;;2071590;28;20088;-72
2021/11/17 02:40:13;;;;;;;30.00;18.20;;;8.10;99.90;;;;;;2070413;28;20022;-71
2021/11/17 02:41:29;;;;;;;27.08;18.85;;;8.10;99.90;;;;;;2079603;28;20026;-71
2021/11/17 02:42:42;;;;;;;30.38;20.38;;;8.10;99.90;;;;;;2077156;28;20053;-71
2021/11/17 02:43:54;;;;;;;26.90;18.55;;;8.10;99.90;;;;;;2064834;28;20101;-71
2021/11/17 02:45:28;;;;;;;27.65;18.77;;;8.10;99.90;;;;;;2070821;28;20506;-71
2021/11/17 02:46:59;;;;;;;28.02;18.73;;;8.10;99.90;;;;;;2070825;28;20390;-71
2021/11/17 02:48:24;;;;;;;29.23;19.33;;;8.10;99.90;;;;;;2072310;28;20061;-71
2021/11/17 02:49:33;;;;;;;27.00;18.73;;;8.10;99.90;;;;;;2072693;28;20052;-71
2021/11/17 02:50:49;;;;;;;29.67;18.58;;;8.10;99.90;;;;;;2071960;28;20121;-71
2021/11/17 02:51:53;;;;;;;28.42;19.23;;;8.10;99.90;;;;;;2070008;28;20383;-71
2021/11/17 02:53:16;;;;;;;33.60;20.65;;;8.10;99.90;;;;;;2069716;28;20394;-71
2021/11/17 02:54:35;;;;;;;26.73;19.58;;;8.10;99.90;;;;;;2072790;28;20032;-72
2021/11/17 02:56:01;;;;;;;27.13;18.80;;;8.10;99.90;;;;;;2072255;28;20676;-71
2021/11/17 02:57:23;;;;;;;29.10;18.85;;;8.10;99.90;;;;;;2072647;28;20517;-71
2021/11/17 02:58:33;;;;;;;28.92;18.83;;;8.10;99.90;;;;;;2071936;28;20475;-71
2021/11/17 02:59:55;;;;;;;27.20;18.35;;;8.10;99.90;;;;;;2072611;28;20571;-72
2021/11/17 03:01:13;;;;;;;27.85;18.83;;;8.10;99.90;;;;;;2071616;28;20045;-71
2021/11/17 03:02:20;;;;;;;25.05;17.60;;;8.10;99.90;;;;;;2077131;28;20045;-71
2021/11/17 03:03:39;;;;;;;30.15;19.33;;;8.10;99.90;;;;;;2079425;28;20032;-71
2021/11/17 03:04:59;;;;;;;29.55;20.35;;;8.10;99.90;;;;;;2072705;28;20057;-71
2021/11/17 03:06:36;;;;;;;30.40;20.17;;;8.10;99.90;;;;;;2071543;28;20026;-71
2021/11/17 03:07:46;;;;;;;29.50;19.83;;;8.10;99.90;;;;;;2067966;28;20030;-72
2021/11/17 03:09:15;;;;;;;30.75;19.38;;;8.10;99.90;;;;;;2068794;28;20078;-71
2021/11/17 03:10:15;;;;;;;28.65;19.65;;;8.10;99.90;;;;;;2072089;28;20756;-72
2021/11/17 03:11:28;;;;;;;27.75;19.77;;;8.00;99.90;;;;;;2071951;28;20584;-71
2021/11/17 03:12:51;;;;;;;30.23;19.67;;;8.10;99.90;;;;;;2066564;28;20079;-72
2021/11/17 03:14:00;;;;;;;28.60;17.92;;;8.10;99.90;;;;;;2068247;28;20116;-71
2021/11/17 03:15:15;;;;;;;23.48;17.77;;;8.00;99.90;;;;;;2071896;28;20425;-72
2021/11/17 03:16:28;;;;;;;27.23;19.48;;;8.00;99.90;;;;;;2072867;28;20022;-71
2021/11/17 03:18:09;;;;;;;27.40;18.42;;;8.00;99.90;;;;;;2076452;28;20025;-72
2021/11/17 03:19:32;;;;;;;27.90;18.73;;;8.00;99.90;;;;;;2072104;28;20027;-71
2021/11/17 03:20:35;;;;;;;30.67;19.52;;;8.00;99.90;;;;;;2072332;28;20458;-71
2021/11/17 03:21:58;;;;;;;30.08;19.65;;;8.00;99.90;;;;;;2071563;28;20089;-71
2021/11/17 03:23:04;;;;;;;30.50;17.35;;;8.00;99.90;;;;;;2055465;28;20030;-71
2021/11/17 03:24:16;;;;;;;29.40;19.35;;;8.00;99.90;;;;;;2057298;28;20097;-72
2021/11/17 03:25:17;;;;;;;29.35;19.20;;;8.00;99.90;;;;;;2069200;28;20033;-72
2021/11/17 03:26:39;;;;;;;26.65;18.40;;;8.00;99.90;;;;;;2072126;28;20065;-71
2021/11/17 03:27:42;;;;;;;28.35;20.05;;;8.00;99.90;;;;;;2072105;28;20113;-71
2021/11/17 03:28:56;;;;;;;26.65;18.25;;;8.00;99.90;;;;;;2071557;28;20040;-72
2021/11/17 03:30:26;;;;;;;28.83;19.98;;;8.00;99.90;;;;;;2079971;28;20408;-72
2021/11/17 03:31:58;;;;;;;30.08;19.23;;;8.00;99.90;;;;;;2075923;28;20060;-71
2021/11/17 03:33:33;;;;;;;29.92;19.10;;;8.00;99.90;;;;;;2067101;28;20633;-72
2021/11/17 03:35:17;;;;;;;27.27;19.00;;;8.00;99.90;;;;;;2077884;28;20025;-71
2021/11/17 03:36:52;;;;;;;27.55;19.45;;;7.90;99.90;;;;;;2069292;28;20034;-71
2021/11/17 03:38:18;;;;;;;31.05;18.15;;;7.90;99.90;;;;;;2069669;28;20022;-71
2021/11/17 03:39:29;;;;;;;29.75;20.02;;;7.90;99.90;;;;;;2064853;28;20069;-71
2021/11/17 03:41:04;;;;;;;29.00;19.55;;;7.90;99.90;;;;;;2072510;28;20033;-71
2021/11/17 03:42:11;;;;;;;28.02;18.60;;;7.90;99.90;;;;;;2072377;28;20054;-71
2021/11/17 03:43:26;;;;;;;30.13;19.90;;;7.90;99.90;;;;;;2071457;28;20046;-71
2021/11/17 03:44:48;;;;;;;29.17;20.02;;;7.90;99.90;;;;;;2068727;28;20038;-71
2021/11/17 03:46:03;;;;;;;31.08;20.60;;;7.90;99.90;;;;;;2075395;28;20470;-71
2021/11/17 03:47:48;;;;;;;28.90;19.88;;;8.00;99.90;;;;;;2072520;28;20026;-71
2021/11/17 03:49:33;;;;;;;28.65;19.70;;;8.00;99.90;;;;;;2067447;28;20053;-71
2021/11/17 03:51:05;;;;;;;31.67;20.50;;;7.90;99.90;;;;;;2038912;29;20031;-72
2021/11/17 03:52:34;;;;;;;30.75;21.27;;;7.90;99.90;;;;;;2043040;28;20383;-72
2021/11/17 03:53:40;;;;;;;33.13;20.25;;;7.90;99.90;;;;;;2064222;28;20045;-72
2021/11/17 03:54:54;;;;;;;32.20;21.23;;;7.90;99.90;;;;;;2070922;28;20034;-71
2021/11/17 03:56:27;;;;;;;31.27;21.25;;;7.90;99.90;;;;;;2070054;28;20518;-71
2021/11/17 03:57:49;;;;;;;35.90;21.73;;;7.90;99.90;;;;;;2071561;28;20026;-71
2021/11/17 03:58:53;;;;;;;31.00;20.67;;;7.90;99.90;;;;;;2069125;28;20052;-71
2021/11/17 04:00:35;;;;;;;32.97;20.15;;;7.90;99.90;;;;;;2072191;28;20096;-71
2021/11/17 04:02:17;;;;;;;30.58;20.60;;;7.90;99.90;;;;;;2071132;28;20026;-71
2021/11/17 04:03:29;;;;;;;32.45;21.92;;;7.90;99.90;;;;;;2071264;28;20058;-71
2021/11/17 04:04:54;;;;;;;32.83;22.70;;;7.90;99.90;;;;;;2064722;28;20042;-71
2021/11/17 04:05:55;;;;;;;31.05;22.15;;;7.90;99.90;;;;;;2069762;28;20036;-71
2021/11/17 04:07:22;;;;;;;33.63;22.73;;;7.90;99.90;;;;;;2072073;28;20154;-71
2021/11/17 04:08:33;;;;;;;33.83;22.27;;;7.90;99.90;;;;;;2071489;28;20065;-71
2021/11/17 04:09:39;;;;;;;;;;;7.90;99.90;;;;;;2064602;28;20533;-71
2021/11/17 04:11:13;;;;;;;30.60;21.15;;;7.90;99.90;;;;;;2068370;28;19905;-71
2021/11/17 04:12:32;;;;;;;30.30;20.65;;;7.90;99.90;;;;;;2071040;28;20381;-72
2021/11/17 04:13:44;;;;;;;29.38;20.50;;;7.90;99.90;;;;;;2071306;28;20037;-72
2021/11/17 04:15:15;;;;;;;32.63;22.52;;;7.90;99.90;;;;;;2070257;28;20026;-72
2021/11/17 04:16:37;;;;;;;31.42;20.45;;;7.90;99.90;;;;;;2066306;28;20030;-71
2021/11/17 04:17:56;;;;;;;31.33;20.92;;;7.90;99.90;;;;;;2063890;28;20057;-71
2021/11/17 04:19:15;;;;;;;28.52;20.05;;;7.90;99.90;;;;;;2066840;28;20378;-71
2021/11/17 04:20:32;;;;;;;29.65;21.52;;;7.90;99.90;;;;;;2070578;28;20030;-72
2021/11/17 04:22:06;;;;;;;30.67;21.58;;;7.90;99.90;;;;;;2070472;28;20026;-72
2021/11/17 04:23:16;;;;;;;38.40;22.60;;;7.90;99.90;;;;;;2070672;28;20467;-72
2021/11/17 04:24:32;;;;;;;31.60;22.23;;;7.90;99.90;;;;;;2071451;28;20075;-72
2021/11/17 04:25:46;;;;;;;32.63;23.33;;;7.90;99.90;;;;;;2070627;28;20056;-72
2021/11/17 04:27:12;;;;;;;30.27;21.48;;;7.90;99.90;;;;;;2072017;28;20049;-71
2021/11/17 04:28:40;;;;;;;32.30;22.42;;;7.90;99.90;;;;;;2070946;28;20018;-71
2021/11/17 04:30:28;;;;;;;32.50;22.45;;;7.90;99.90;;;;;;2071591;28;20026;-71
2021/11/17 04:32:00;;;;;;;28.60;21.00;;;7.90;99.90;;;;;;2071909;28;20033;-71
2021/11/17 04:33:28;;;;;;;33.20;22.40;;;7.90;99.90;;;;;;2063157;28;20037;-72
2021/11/17 04:34:41;;;;;;;30.27;21.73;;;7.90;99.90;;;;;;2065588;28;20114;-71
2021/11/17 04:35:57;;;;;;;34.47;22.73;;;7.80;99.90;;;;;;2071682;28;20021;-71
2021/11/17 04:37:08;;;;;;;32.70;23.38;;;7.90;99.90;;;;;;2071966;28;20034;-71
2021/11/17 04:38:27;;;;;;;;;;;7.90;99.90;;;;;;2067961;28;20022;-71
2021/11/17 04:39:40;;;;;;;30.17;20.35;;;7.80;99.90;;;;;;2068534;28;19914;-72
2021/11/17 04:41:02;;;;;;;31.25;21.20;;;7.80;99.90;;;;;;2071639;28;20033;-71
2021/11/17 04:42:25;;;;;;;33.90;22.48;;;7.80;99.90;;;;;;2071892;28;20840;-71
2021/11/17 04:44:05;;;;;;;31.73;21.80;;;7.80;99.90;;;;;;2072020;28;20026;-71
2021/11/17 04:45:36;;;;;;;32.63;22.48;;;7.80;99.90;;;;;;2072209;28;20022;-72
2021/11/17 04:46:43;;;;;;;35.70;22.85;;;7.80;99.90;;;;;;2071595;28;20526;-71
2021/11/17 04:47:53;;;;;;;38.25;24.05;;;7.80;99.90;;;;;;2067749;28;20022;-72
2021/11/17 04:49:18;;;;;;;33.90;22.92;;;7.80;99.90;;;;;;2070425;28;20132;-71
2021/11/17 04:50:35;;;;;;;36.70;22.85;;;7.80;99.90;;;;;;2068564;28;20030;-71
2021/11/17 04:52:13;;;;;;;34.47;23.92;;;7.80;99.90;;;;;;2063511;28;20030;-72
2021/11/17 04:53:17;;;;;;;32.45;22.73;;;7.80;99.90;;;;;;2063746;28;20439;-71
2021/11/17 04:54:43;;;;;;;36.15;23.73;;;7.80;99.90;;;;;;2067176;28;20660;-71
2021/11/17 04:55:53;;;;;;;33.55;23.48;;;7.90;99.90;;;;;;2065736;28;20033;-72
2021/11/17 04:57:24;;;;;;;34.63;24.10;;;7.90;99.90;;;;;;2071650;28;20371;-71
2021/11/17 04:58:40;;;;;;;34.70;23.05;;;7.90;99.90;;;;;;2078170;28;20025;-72
2021/11/17 05:00:19;;;;;;;35.55;24.65;;;7.90;99.90;;;;;;2067473;28;20105;-71
2021/11/17 05:01:40;;;;;;;34.88;22.92;;;7.90;99.90;;;;;;2063388;28;20033;-71
2021/11/17 05:03:10;;;;;;;34.88;23.35;;;7.90;99.90;;;;;;2069823;28;20026;-72
2021/11/17 05:04:20;;;;;;;;;;;7.90;99.90;;;;;;2072045;28;20025;-71
2021/11/17 05:05:45;;;;;;;37.50;23.65;;;7.80;99.90;;;;;;2071253;28;20328;-71
2021/11/17 05:07:16;;;;;;;33.58;22.88;;;7.90;99.90;;;;;;2071650;28;20029;-72
2021/11/17 05:08:50;;;;;;;36.38;23.85;;;7.90;99.90;;;;;;2066571;28;20152;-71
2021/11/17 05:10:03;;;;;;;37.47;24.35;;;7.90;99.90;;;;;;2065382;28;20386;-71
2021/11/17 05:11:24;;;;;;;36.65;23.33;;;8.00;99.90;;;;;;2067122;28;20075;-72
2021/11/17 05:13:18;;;;;;;32.75;22.13;;;8.00;99.90;;;;;;2067966;28;20026;-71
2021/11/17 05:14:30;;;;;;;35.00;22.65;;;8.00;99.90;;;;;;2051210;28;20118;-71
2021/11/17 05:15:56;;;;;;;36.95;22.92;;;8.00;99.90;;;;;;2067526;28;20026;-71
2021/11/17 05:17:24;;;;;;;33.90;23.23;;;8.00;99.90;;;;;;2072910;28;20465;-71
2021/11/17 05:18:58;;;;;;;36.25;24.23;;;8.00;99.90;;;;;;2075823;28;20359;-71
2021/11/17 05:20:20;;;;;;;33.17;22.92;;;8.00;99.90;;;;;;2064750;28;20027;-71
2021/11/17 05:21:36;;;;;;;35.67;24.33;;;8.00;99.90;;;;;;2066626;28;20023;-71
2021/11/17 05:23:01;;;;;;;41.97;25.55;;;8.00;99.90;;;;;;2078584;28;20033;-71
2021/11/17 05:24:25;;;;;;;38.78;25.40;;;8.00;99.90;;;;;;2070404;28;20037;-71
2021/11/17 05:25:53;;;;;;;36.53;23.92;;;8.00;99.90;;;;;;2071383;28;20552;-71
2021/11/17 05:26:59;;;;;;;36.15;24.10;;;8.00;99.90;;;;;;2068490;28;20041;-71
2021/11/17 05:28:28;;;;;;;35.33;23.27;;;8.00;99.90;;;;;;2071102;28;20374;-71
2021/11/17 05:29:40;;;;;;;33.88;22.52;;;8.00;99.90;;;;;;2071162;28;20085;-72
2021/11/17 05:31:02;;;;;;;34.70;22.73;;;8.00;99.90;;;;;;2063096;28;20057;-71
2021/11/17 05:32:30;;;;;;;41.33;24.27;;;8.00;99.90;;;;;;2069799;28;20030;-71
2021/11/17 05:33:44;;;;;;;35.30;23.30;;;8.00;99.90;;;;;;2072070;28;20048;-71
2021/11/17 05:35:07;;;;;;;37.10;24.25;;;8.00;99.90;;;;;;2058276;28;20137;-71
2021/11/17 05:36:17;;;;;;;37.67;24.13;;;8.00;99.90;;;;;;2065409;28;20025;-71
2021/11/17 05:37:30;;;;;;;;;;;8.00;99.90;;;;;;2072012;28;20045;-71
2021/11/17 05:39:24;;;;;;;39.38;25.20;;;8.00;99.90;;;;;;2068000;28;19956;-71
2021/11/17 05:40:24;;;;;;;36.05;23.67;;;7.90;99.90;;;;;;2067627;28;20164;-71
2021/11/17 05:41:55;;;;;;;32.42;22.10;;;7.90;99.90;;;;;;2067109;28;20038;-71
2021/11/17 05:43:19;;;;;;;37.50;23.45;;;8.00;99.90;;;;;;2068733;28;20034;-72
2021/11/17 05:44:25;;;;;;;32.22;22.17;;;8.00;99.90;;;;;;2066845;28;20482;-71
2021/11/17 05:45:28;;;;;;;35.63;22.98;;;8.00;99.90;;;;;;2063295;28;20053;-71
2021/11/17 05:47:07;;;;;;;31.98;22.02;;;8.00;99.90;;;;;;2067140;28;20026;-71
2021/11/17 05:48:17;;;;;;;36.70;22.45;;;8.10;99.90;;;;;;2063730;28;20064;-71
2021/11/17 05:49:55;;;;;;;36.17;23.48;;;8.10;99.90;;;;;;2068171;28;20033;-71
2021/11/17 05:51:27;;;;;;;34.45;22.15;;;8.00;99.90;;;;;;2072425;28;20040;-71
2021/11/17 05:52:39;;;;;;;36.55;22.45;;;8.00;99.90;;;;;;2070220;28;20036;-71
2021/11/17 05:54:17;;;;;;;37.10;22.73;;;8.00;99.90;;;;;;2067832;28;20027;-71
2021/11/17 05:55:27;;;;;;;35.22;23.13;;;8.00;99.90;;;;;;2067634;28;20026;-71
2021/11/17 05:56:52;;;;;;;35.65;23.35;;;8.00;99.90;;;;;;2067254;28;20076;-71
2021/11/17 05:57:59;;;;;;;34.70;22.23;;;8.00;99.90;;;;;;2069748;28;20129;-71
2021/11/17 05:59:12;;;;;;;37.25;23.35;;;8.10;99.90;;;;;;2068127;28;20029;-71
2021/11/17 06:00:31;;;;;;;37.42;23.20;;;8.10;99.90;;;;;;2065877;28;20023;-71
2021/11/17 06:01:43;;;;;;;32.70;21.58;;;8.10;99.90;;;;;;2065303;28;20022;-72
2021/11/17 06:03:14;;;;;;;33.70;22.45;;;8.10;99.90;;;;;;2073368;28;20474;-71
2021/11/17 06:04:15;;;;;;;41.72;23.67;;;8.10;99.90;;;;;;2067669;28;20092;-71
2021/11/17 06:05:15;;;;;;;36.15;22.85;;;8.10;99.90;;;;;;2064472;28;20018;-71
2021/11/17 06:06:16;;;;;;;40.97;24.10;;;8.10;99.90;;;;;;2065555;28;20097;-72
2021/11/17 06:07:16;;;;;;;38.03;24.92;;;8.10;99.90;;;;;;2067744;28;20505;-71
2021/11/17 06:08:17;;;;;;;38.97;25.00;;;8.20;99.90;;;;;;2067659;28;20026;-71
2021/11/17 06:09:18;;;;;;;39.33;25.15;;;8.10;99.90;;;;;;2066668;28;20025;-71
2021/11/17 06:10:24;;;;;;;39.55;24.13;;;8.20;99.90;;;;;;2067811;28;20022;-71
2021/11/17 06:11:58;;;;;;;38.47;23.58;;;8.20;99.90;;;;;;2069185;28;20026;-71
2021/11/17 06:13:00;;;;;;;36.28;23.38;;;8.20;99.90;;;;;;2062497;28;20042;-71
2021/11/17 06:14:02;;;;;;;35.15;21.95;;;8.20;99.90;;;;;;2068431;28;20162;-71
2021/11/17 06:15:05;;;;;;;38.88;24.80;;;8.20;99.90;;;;;;2066559;28;20489;-72
2021/11/17 06:16:06;;;;;;;37.45;24.20;;;8.20;99.90;;;;;;2065066;28;20026;-71
2021/11/17 06:17:13;;;;;;;37.83;23.80;;;8.20;99.90;;;;;;2065098;28;20026;-71
2021/11/17 06:18:18;;;;;;;34.83;22.92;;;8.20;99.90;;;;;;2064681;28;20029;-71
2021/11/17 06:19:23;;;;;;;36.47;23.58;;;8.20;99.90;;;;;;2069618;28;20120;-71
2021/11/17 06:20:24;;;;;;;35.95;23.48;;;8.20;99.90;;;;;;2068942;28;20014;-71
2021/11/17 06:21:25;;;;;;;36.55;23.15;;;8.20;99.90;;;;;;2064805;28;20018;-72
2021/11/17 06:22:29;;;;;;;32.85;21.58;;;8.20;99.90;;;;;;2070122;28;20018;-71
2021/11/17 06:23:35;;;;;;;36.42;24.10;;;8.20;99.90;;;;;;2066813;28;20493;-71
2021/11/17 06:24:38;;;;;;;37.35;22.35;;;8.20;99.90;;;;;;2066067;28;20064;-69
2021/11/17 06:25:41;;;;;;;33.85;23.00;;;8.20;99.90;;;;;;2067930;28;20068;-69
2021/11/17 06:26:44;;;;;;;34.50;22.75;;;8.20;99.90;;;;;;2067378;28;20037;-69
2021/11/17 06:27:49;;;;;;;35.70;22.40;;;8.20;99.90;;;;;;2069793;28;20032;-69
2021/11/17 06:28:59;;;;;;;35.97;23.27;;;8.20;99.90;;;;;;2064395;28;20098;-69
2021/11/17 06:30:00;;;;;;;33.55;22.00;;;8.20;99.90;;;;;;2067160;28;20026;-71
2021/11/17 06:31:02;;;;;;;34.25;22.65;;;8.20;99.90;;;;;;2067761;28;20121;-71
2021/11/17 06:32:03;;;;;;;42.75;23.52;;;8.20;99.90;;;;;;2069360;28;20018;-72
2021/11/17 06:33:05;;;;;;;36.60;23.77;;;8.20;99.90;;;;;;2065139;28;20460;-71
2021/11/17 06:34:37;;;;;;;37.13;23.60;;;8.20;99.90;;;;;;2067952;28;20060;-71
2021/11/17 06:35:40;;;;;;;36.00;22.65;;;8.20;99.90;;;;;;2069096;28;20023;-71
2021/11/17 06:36:40;;;;;;;35.05;23.02;;;8.20;99.90;;;;;;2071260;28;20038;-71
2021/11/17 06:37:41;;;;;;;35.88;23.17;;;8.20;99.90;;;;;;2072469;28;20025;-71
2021/11/17 06:38:41;;;;;;;37.70;23.98;;;8.30;99.90;;;;;;2072030;28;20025;-71
2021/11/17 06:39:48;;;;;;;36.15;24.25;;;8.30;99.90;;;;;;2066178;28;20471;-72
2021/11/17 06:40:49;;;;;;;35.58;24.67;;;8.30;99.90;;;;;;2070176;28;20052;-71
2021/11/17 06:41:50;;;;;;;39.63;23.20;;;8.30;99.90;;;;;;2069187;28;20490;-71
2021/11/17 06:42:54;;;;;;;36.58;24.05;;;8.30;99.90;;;;;;2067643;28;20054;-71
2021/11/17 06:43:54;;;;;;;35.50;22.90;;;8.30;99.90;;;;;;2066205;28;20014;-71
2021/11/17 06:44:55;;;;;;;33.38;22.58;;;8.30;99.90;;;;;;2067928;28;20038;-71
2021/11/17 06:45:57;;;;;;;33.78;22.08;;;8.30;99.90;;;;;;2067627;28;20557;-72
2021/11/17 06:46:58;;;;;;;33.05;21.83;;;8.40;99.90;;;;;;2068300;28;20396;-71
2021/11/17 06:47:59;;;;;;;35.15;22.83;;;8.40;99.90;;;;;;2071210;28;20022;-71
2021/11/17 06:49:00;;;;;;;34.22;22.70;;;8.30;99.90;;;;;;2066169;28;20018;-71
2021/11/17 06:50:02;;;;;;;33.20;22.55;;;8.40;99.90;;;;;;2069867;28;20076;-71
2021/11/17 06:51:04;;;;;;;34.80;23.63;;;8.40;99.90;;;;;;2069085;28;20100;-71
2021/11/17 06:52:05;;;;;;;33.17;22.58;;;8.40;99.90;;;;;;2072175;28;20092;-71
2021/11/17 06:53:07;;;;;;;34.22;22.35;;;8.40;99.90;;;;;;2070124;28;20478;-71
2021/11/17 06:54:08;;;;;;;37.05;24.45;;;8.40;99.90;;;;;;2069037;28;20022;-71
2021/11/17 06:55:10;;;;;;;32.97;22.58;;;8.40;99.90;;;;;;2070492;28;20049;-71
2021/11/17 06:56:12;;;;;;;39.65;23.10;;;8.30;99.90;;;;;;2068146;28;20026;-71
2021/11/17 06:57:13;;;;;;;35.97;23.15;;;8.40;99.90;;;;;;2068140;28;20030;-71
2021/11/17 06:58:14;;;;;;;36.13;24.60;;;8.40;99.90;;;;;;2067282;28;20104;-71
2021/11/17 06:59:15;;;;;;;37.80;23.70;;;8.40;99.90;;;;;;2067031;28;20029;-72
2021/11/17 07:00:19;;;;;;;38.47;23.58;;;8.40;99.90;;;;;;2069727;28;20026;-71
2021/11/17 07:01:20;;;;;;;38.38;23.65;;;8.40;99.90;;;;;;2069109;28;20014;-71
2021/11/17 07:02:20;;;;;;;34.80;22.88;;;8.40;99.90;;;;;;2066497;28;20050;-71
2021/11/17 07:03:21;;;;;;;34.90;23.63;;;8.40;99.90;;;;;;2066336;28;20026;-72
2021/11/17 07:04:22;;;;;;;36.70;23.45;;;8.40;99.90;;;;;;2067591;28;20026;-71
2021/11/17 07:05:22;;;;;;;41.33;23.80;;;8.40;99.90;;;;;;2069606;28;20057;-71
2021/11/17 07:06:23;;;;;;;39.10;23.30;;;8.40;99.90;;;;;;2077109;28;20021;-71
2021/11/17 07:07:23;;;;;;;37.58;22.98;;;8.40;99.90;;;;;;2080066;28;20049;-71
2021/11/17 07:08:24;;;;;;;38.72;24.02;;;8.40;99.90;;;;;;2071065;28;20030;-71
2021/11/17 07:09:25;;;;;;;37.85;23.35;;;8.40;99.90;;;;;;2071890;28;20030;-71
2021/11/17 07:10:28;;;;;;;35.65;23.15;;;8.40;99.90;;;;;;2072841;28;21960;-71
2021/11/17 07:11:30;;;;;;;36.65;22.58;;;8.40;99.90;;;;;;2071945;28;20037;-71
2021/11/17 07:12:30;;;;;;;33.55;23.10;;;8.40;99.90;;;;;;2071829;28;20026;-71
2021/11/17 07:13:32;;;;;;;39.67;23.63;;;8.40;99.90;;;;;;2065829;28;20031;-71
2021/11/17 07:14:32;;;;;;;34.83;23.73;;;8.30;99.90;;;;;;2072375;28;20080;-71
2021/11/17 07:15:34;;;;;;;35.95;24.00;;;8.40;99.90;;;;;;2072540;28;20045;-72
2021/11/17 07:16:38;;;;;;;34.83;22.40;;;8.40;99.90;;;;;;2071724;28;20084;-71
2021/11/17 07:17:38;;;;;;;33.83;22.02;;;8.40;99.90;;;;;;2071915;28;20548;-71
2021/11/17 07:18:39;;;;;;;35.17;22.95;;;8.40;99.90;;;;;;2067565;28;20506;-71
2021/11/17 07:19:40;;;;;;;35.15;23.08;;;8.40;99.90;;;;;;2064188;28;20101;-72
2021/11/17 07:20:40;;;;;;;41.08;23.40;;;8.40;99.90;;;;;;2071152;28;20296;-72
2021/11/17 07:21:43;;;;;;;36.03;24.20;;;8.40;99.90;;;;;;2072484;28;20375;-71
2021/11/17 07:22:44;;;;;;;34.45;22.48;;;8.40;99.90;;;;;;2072307;28;20026;-71
2021/11/17 07:23:45;;;;;;;33.60;22.48;;;8.40;99.90;;;;;;2072595;28;20046;-71
2021/11/17 07:24:45;;;;;;;36.30;23.15;;;8.40;99.90;;;;;;2072487;28;20030;-71
2021/11/17 07:25:46;;;;;;;30.30;21.75;;;8.50;99.90;;;;;;2072389;28;20399;-71
2021/11/17 07:26:47;;;;;;;35.22;23.25;;;8.50;99.90;;;;;;2072094;28;20030;-72
2021/11/17 07:27:48;;;;;;;30.83;21.73;;;8.50;99.90;;;;;;2072443;28;20037;-72
2021/11/17 07:28:48;;;;;;;32.00;22.27;;;8.50;99.90;;;;;;2071519;28;20025;-71
2021/11/17 07:29:52;;;;;;;32.35;21.25;;;8.50;99.90;;;;;;2071466;28;20026;-71
2021/11/17 07:30:53;;;;;;;31.40;20.63;;;8.50;99.90;;;;;;2071630;28;20189;-71
2021/11/17 07:31:54;;;;;;;30.75;22.13;;;8.50;99.90;;;;;;2073623;28;20478;-71
2021/11/17 07:32:55;;;;;;;33.15;21.70;;;8.50;99.90;;;;;;2079038;28;20021;-71
2021/11/17 07:33:55;;;;;;;32.95;22.85;;;8.50;99.90;;;;;;2074291;28;20041;-72
2021/11/17 07:34:56;;;;;;;32.00;22.52;;;8.50;99.90;;;;;;2076118;28;20561;-71
2021/11/17 07:35:57;;;;;;;32.65;21.85;;;8.60;99.90;;;;;;2072483;28;20026;-71
2021/11/17 07:36:57;;;;;;;31.92;22.65;;;8.60;99.90;;;;;;2072020;28;20037;-71
2021/11/17 07:38:01;;;;;;;30.10;21.23;;;8.60;99.90;;;;;;2072347;28;20033;-71
2021/11/17 07:39:03;;;;;;;31.10;22.05;;;8.60;99.90;;;;;;2071943;28;20072;-71
2021/11/17 07:40:06;;;;;;;32.88;21.92;;;8.60;99.90;;;;;;2067732;28;20034;-71
2021/11/17 07:41:08;;;;;;;30.00;21.20;;;8.60;99.90;;;;;;2065850;28;20030;-71
2021/11/17 07:42:09;;;;;;;31.00;21.70;;;8.60;99.90;;;;;;2072476;28;20037;-71
2021/11/17 07:43:10;;;;;;;34.63;22.38;;;8.60;99.90;;;;;;2072310;28;20026;-71
2021/11/17 07:44:14;;;;;;;30.95;21.77;;;8.60;99.90;;;;;;2072050;28;20030;-71
2021/11/17 07:45:15;;;;;;;33.05;22.70;;;8.60;99.90;;;;;;2071593;28;20099;-71
2021/11/17 07:46:16;;;;;;;33.20;22.33;;;8.70;99.90;;;;;;2070763;28;20013;-71
2021/11/17 07:47:16;;;;;;;32.40;22.48;;;8.70;99.90;;;;;;2070360;28;20045;-71
2021/11/17 07:48:20;;;;;;;32.67;22.25;;;8.70;99.90;;;;;;2070645;28;20018;-71
2021/11/17 07:49:22;;;;;;;32.75;23.63;;;8.70;99.90;;;;;;2071435;28;20079;-71
2021/11/17 07:50:22;;;;;;;34.83;23.33;;;8.70;99.90;;;;;;2071616;28;20026;-71
2021/11/17 07:51:23;;;;;;;34.97;22.95;;;8.80;99.90;;;;;;2071462;28;20525;-71
2021/11/17 07:52:23;;;;;;;32.85;21.60;;;8.80;99.90;;;;;;2071610;28;20359;-71
2021/11/17 07:53:26;;;;;;;31.73;22.63;;;8.80;99.90;;;;;;2071924;28;20018;-71
2021/11/17 07:54:27;;;;;;;33.45;23.45;;;8.80;99.90;;;;;;2071737;28;20034;-71
2021/11/17 07:55:29;;;;;;;31.20;22.88;;;8.80;99.90;;;;;;2071900;28;20026;-71
2021/11/17 07:56:29;;;;;;;31.63;23.15;;;8.90;99.90;;;;;;2067415;28;20073;-71
2021/11/17 07:57:30;;;;;;;31.58;22.00;;;8.90;99.90;;;;;;2067069;28;20042;-71
2021/11/17 07:58:35;;;;;;;30.10;21.10;;;8.90;99.90;;;;;;2069909;28;20051;-71
2021/11/17 07:59:37;;;;;;;29.73;21.83;;;8.90;99.90;;;;;;2072111;28;20105;-71
2021/11/17 08:00:41;;;;;;;32.10;22.15;;;8.90;99.90;;;;;;2071660;28;20058;-71
2021/11/17 08:01:45;;;;;;;34.42;21.92;;;9.00;99.90;;;;;;2072377;28;20134;-71
2021/11/17 08:02:47;;;;;;;31.65;21.27;;;9.00;99.90;;;;;;2072134;28;20490;-71
2021/11/17 08:03:48;;;;;;;31.25;22.17;;;9.00;99.90;;;;;;2072128;28;20076;-71
2021/11/17 08:04:49;;;;;;;34.60;22.20;;;9.00;99.90;;;;;;2068077;28;20366;-71
2021/11/17 08:05:53;;;;;;;28.10;20.92;;;9.00;99.90;;;;;;2070543;28;20053;-72
2021/11/17 08:06:53;;;;;;;31.38;22.15;;;9.00;99.90;;;;;;2071548;28;20026;-71
2021/11/17 08:07:54;;;;;;;31.25;21.33;;;9.00;99.90;;;;;;2064480;28;20049;-71
2021/11/17 08:08:56;;;;;;;31.60;21.63;;;9.00;99.90;;;;;;2067099;28;20040;-71
2021/11/17 08:09:57;;;;;;;31.23;22.05;;;9.10;99.90;;;;;;2071673;28;20038;-71
2021/11/17 08:10:59;;;;;;;31.13;22.23;;;9.10;99.90;;;;;;2071117;28;20104;-71
2021/11/17 08:11:59;;;;;;;30.38;21.50;;;9.10;99.90;;;;;;2068886;28;20037;-71
2021/11/17 08:13:00;;;;;;;30.75;21.13;;;9.10;99.90;;;;;;2071519;28;20101;-71
2021/11/17 08:14:01;;;;;;;28.00;21.42;;;9.10;99.90;;;;;;2071765;28;20026;-71
2021/11/17 08:15:03;;;;;;;31.67;21.52;;;9.10;99.90;;;;;;2071298;28;20018;-71
2021/11/17 08:16:08;;;;;;;29.85;21.98;;;9.20;99.90;;;;;;2070804;28;20398;-71
2021/11/17 08:17:09;;;;;;;28.38;20.73;;;9.20;99.90;;;;;;2069712;28;20402;-71
2021/11/17 08:18:10;;;;;;;28.75;20.63;;;9.20;99.90;;;;;;2064647;28;20018;-71
2021/11/17 08:19:10;;;;;;;30.92;21.80;;;9.30;99.90;;;;;;2066667;28;20026;-71
2021/11/17 08:20:13;;;;;;;27.63;21.17;;;9.30;99.90;;;;;;2066369;28;20070;-71
2021/11/17 08:21:15;;;;;;;29.95;21.23;;;9.30;99.90;;;;;;2066081;28;20028;-71
2021/11/17 08:22:16;;;;;;;30.15;22.35;;;9.30;99.90;;;;;;2071064;28;20026;-71
2021/11/17 08:23:17;;;;;;;31.98;23.02;;;9.40;99.90;;;;;;2068186;28;20045;-71
2021/11/17 08:24:18;;;;;;;29.20;21.38;;;9.30;99.90;;;;;;2072097;28;20022;-71
2021/11/17 08:25:21;;;;;;;30.75;21.90;;;9.40;99.90;;;;;;2071381;28;20433;-71
2021/11/17 08:26:23;;;;;;;30.88;21.42;;;9.40;99.90;;;;;;2071406;28;20112;-71
2021/11/17 08:27:23;;;;;;;31.50;23.08;;;9.40;99.90;;;;;;2071073;28;20017;-71
2021/11/17 08:28:24;;;;;;;31.23;23.05;;;9.40;99.90;;;;;;2071464;28;20022;-72
2021/11/17 08:29:26;;;;;;;32.65;23.30;;;9.40;99.90;;;;;;2071819;28;20045;-71
2021/11/17 08:30:30;;;;;;;30.65;22.35;;;9.50;99.90;;;;;;2072189;28;20437;-71
2021/11/17 08:31:31;;;;;;;31.75;21.80;;;9.40;99.90;;;;;;2071082;28;20030;-71
2021/11/17 08:32:31;;;;;;;30.88;22.73;;;9.50;99.90;;;;;;2072032;28;21088;-71
2021/11/17 08:33:32;;;;;;;32.55;23.33;;;9.40;99.90;;;;;;2071337;28;20022;-71
2021/11/17 08:34:33;;;;;;;29.40;22.30;;;9.50;99.90;;;;;;2072017;28;20034;-71
2021/11/17 08:35:35;;;;;;;30.45;21.95;;;9.50;99.90;;;;;;2071769;28;20466;-71
2021/11/17 08:36:36;;;;;;;31.13;22.95;;;9.50;99.90;;;;;;2071919;28;20021;-71